Time;durP1;ratioP1;P1;durP2;ratioP2;P2;SDS_P1;SDS_P2;PMS_P1;PMS_P2;Temp;Humidity;BMP_temperature;BMP_pressure;BME280_temperature;BME280_humidity;BME280_pressure;Samples;Min_cycle;Max_cycle;Signal;HPM_P1;HPM_P2
2022/10/26 00:02:04;;;;;;;12.77;8.53;;;8.00;99.90;;;;;;4958199;28;20975;-78
2022/10/26 00:04:31;;;;;;;16.60;8.83;;;8.00;99.90;;;;;;4977545;28;20241;-77
2022/10/26 00:06:58;;;;;;;12.33;7.60;;;8.00;99.90;;;;;;4965421;28;20228;-78
2022/10/26 00:09:24;;;;;;;10.17;7.30;;;7.90;99.90;;;;;;4955662;28;21027;-77
2022/10/26 00:11:52;;;;;;;11.50;6.93;;;7.90;99.90;;;;;;4983032;28;20937;-78
2022/10/26 00:14:19;;;;;;;11.50;7.73;;;7.90;99.90;;;;;;4963297;28;20215;-78
2022/10/26 00:16:47;;;;;;;11.87;7.93;;;7.90;99.90;;;;;;4956783;28;20960;-78
2022/10/26 00:19:13;;;;;;;10.03;7.57;;;7.80;99.90;;;;;;4964642;28;20356;-78
2022/10/26 00:21:40;;;;;;;12.07;7.37;;;7.80;99.90;;;;;;4965090;28;20232;-78
2022/10/26 00:24:07;;;;;;;12.50;7.67;;;7.80;99.90;;;;;;4961963;28;20231;-78
2022/10/26 00:26:35;;;;;;;12.43;7.20;;;7.70;99.90;;;;;;4971651;28;20232;-78
2022/10/26 00:29:02;;;;;;;10.70;7.50;;;7.70;99.90;;;;;;4962767;28;20312;-78
2022/10/26 00:31:29;;;;;;;11.70;7.70;;;7.70;99.90;;;;;;4962113;28;20333;-78
2022/10/26 00:33:59;;;;;;;14.47;8.20;;;7.70;99.90;;;;;;4960616;28;20231;-78
2022/10/26 00:36:26;;;;;;;14.90;8.37;;;7.60;99.90;;;;;;4962316;28;20244;-77
2022/10/26 00:38:55;;;;;;;14.47;8.33;;;7.60;99.90;;;;;;4961181;28;20228;-78
2022/10/26 00:41:25;;;;;;;13.60;8.53;;;7.60;99.90;;;;;;4966207;28;20762;-77
2022/10/26 00:43:52;;;;;;;10.33;7.90;;;7.60;99.90;;;;;;4980915;28;20234;-78
2022/10/26 00:46:22;;;;;;;12.73;7.83;;;7.60;99.90;;;;;;4969989;28;20231;-77
2022/10/26 00:48:53;;;;;;;10.43;8.33;;;7.60;99.90;;;;;;4968557;28;21051;-77
2022/10/26 00:51:27;;;;;;;14.03;8.40;;;7.60;99.90;;;;;;4960224;28;20225;-78
2022/10/26 00:53:56;;;;;;;12.63;8.43;;;7.60;99.90;;;;;;4957373;28;20237;-78
2022/10/26 00:56:23;;;;;;;14.10;7.80;;;7.60;99.90;;;;;;4962291;28;20873;-78
2022/10/26 00:58:51;;;;;;;15.27;7.37;;;7.50;99.90;;;;;;4962516;28;20257;-78
2022/10/26 01:01:17;;;;;;;17.73;8.33;;;7.50;99.90;;;;;;4958413;28;20917;-78
2022/10/26 01:03:45;;;;;;;12.37;8.23;;;7.50;99.90;;;;;;4959925;28;20227;-78
2022/10/26 01:06:13;;;;;;;12.73;8.17;;;7.50;99.90;;;;;;4964398;28;20317;-77
2022/10/26 01:08:43;;;;;;;12.20;7.97;;;7.40;99.90;;;;;;4959269;28;20255;-78
2022/10/26 01:11:10;;;;;;;13.73;7.90;;;7.40;99.90;;;;;;4957966;28;20231;-77
2022/10/26 01:13:38;;;;;;;9.97;7.23;;;7.40;99.90;;;;;;4956277;28;20341;-77
2022/10/26 01:16:35;;;;;;;10.50;7.30;;;7.30;99.90;;;;;;4963550;28;20818;-77
2022/10/26 01:19:44;;;;;;;16.23;8.20;;;7.30;99.90;;;;;;4955156;28;20316;-78
2022/10/26 01:22:15;;;;;;;11.47;8.30;;;7.30;99.90;;;;;;4959278;28;20221;-78
2022/10/26 01:24:58;;;;;;;13.13;8.63;;;7.30;99.90;;;;;;4961410;28;20600;-79
2022/10/26 01:27:29;;;;;;;13.60;8.63;;;7.30;99.90;;;;;;4960681;28;20230;-78
2022/10/26 01:30:31;;;;;;;10.33;7.47;;;7.30;99.90;;;;;;4961209;28;20250;-77
2022/10/26 01:33:22;;;;;;;13.27;7.87;;;7.30;99.90;;;;;;4899010;29;20232;-78
2022/10/26 01:36:01;;;;;;;11.73;7.37;;;7.30;99.90;;;;;;4963707;28;20333;-77
2022/10/26 01:38:37;;;;;;;12.90;7.73;;;7.30;99.90;;;;;;4965960;28;20807;-77
2022/10/26 01:41:10;;;;;;;13.03;8.30;;;7.30;99.90;;;;;;4979139;28;20220;-78
2022/10/26 01:43:43;;;;;;;177.97;16.10;;;7.30;99.90;;;;;;4967727;28;20234;-78
2022/10/26 01:46:13;;;;;;;12.20;8.07;;;7.30;99.90;;;;;;4971218;28;20812;-78
2022/10/26 01:48:41;;;;;;;12.77;7.70;;;7.20;99.90;;;;;;4964827;28;20245;-77
2022/10/26 01:51:10;;;;;;;12.23;8.07;;;7.30;99.90;;;;;;4962353;28;20233;-77
2022/10/26 01:53:44;;;;;;;12.93;8.37;;;7.20;99.90;;;;;;4959845;28;20245;-78
2022/10/26 01:56:18;;;;;;;14.93;8.93;;;7.20;99.90;;;;;;4967047;28;20743;-78
2022/10/26 01:59:13;;;;;;;13.87;8.00;;;7.20;99.90;;;;;;4981864;28;20890;-78
2022/10/26 02:02:18;;;;;;;13.10;8.40;;;7.20;99.90;;;;;;4953609;28;20252;-77
2022/10/26 02:05:00;;;;;;;12.23;8.37;;;7.20;99.90;;;;;;4968104;28;20226;-78
2022/10/26 02:07:35;;;;;;;14.43;8.43;;;7.20;99.90;;;;;;4962535;28;20825;-78
2022/10/26 02:10:10;;;;;;;15.13;9.57;;;7.10;99.90;;;;;;4961893;28;20943;-78
2022/10/26 02:12:45;;;;;;;14.77;9.17;;;7.20;99.90;;;;;;4975132;28;20229;-77
2022/10/26 02:15:17;;;;;;;16.67;9.93;;;7.20;99.90;;;;;;4956511;28;20230;-78
2022/10/26 02:17:51;;;;;;;17.90;8.97;;;7.20;99.90;;;;;;4958081;28;20219;-78
2022/10/26 02:20:21;;;;;;;14.90;9.57;;;7.20;99.90;;;;;;4966022;28;20298;-77
2022/10/26 02:22:51;;;;;;;15.67;9.87;;;7.20;99.90;;;;;;4960937;28;20302;-78
2022/10/26 02:25:22;;;;;;;13.97;8.93;;;7.30;99.90;;;;;;4965198;28;20219;-78
2022/10/26 02:27:53;;;;;;;16.17;9.30;;;7.30;99.90;;;;;;4961752;28;20226;-77
2022/10/26 02:30:20;;;;;;;15.63;9.10;;;7.30;99.90;;;;;;4964169;28;20259;-77
2022/10/26 02:32:51;;;;;;;17.63;9.37;;;7.30;99.90;;;;;;4961284;28;20273;-77
2022/10/26 02:35:22;;;;;;;17.47;10.03;;;7.40;99.90;;;;;;4966893;28;20222;-77
2022/10/26 02:37:51;;;;;;;17.10;9.63;;;7.40;99.90;;;;;;4962811;28;20220;-78
2022/10/26 02:40:24;;;;;;;21.47;9.67;;;7.40;99.90;;;;;;4965156;28;20226;-77
2022/10/26 02:42:52;;;;;;;15.47;9.33;;;7.40;99.90;;;;;;4959828;28;20885;-77
2022/10/26 02:45:23;;;;;;;14.37;9.17;;;7.40;99.90;;;;;;4966159;28;20863;-78
2022/10/26 02:47:51;;;;;;;16.20;8.63;;;7.50;99.90;;;;;;4965927;28;20231;-78
2022/10/26 02:50:23;;;;;;;17.33;9.87;;;7.50;99.90;;;;;;4969470;28;20251;-78
2022/10/26 02:53:08;;;;;;;20.47;9.00;;;7.50;99.90;;;;;;4961491;28;20310;-78
2022/10/26 02:55:40;;;;;;;14.87;9.27;;;7.50;99.90;;;;;;4971526;28;20339;-77
2022/10/26 02:58:10;;;;;;;18.37;8.97;;;7.50;99.90;;;;;;4956169;28;20227;-77
2022/10/26 03:00:37;;;;;;;17.90;8.37;;;7.50;99.90;;;;;;4960129;28;20234;-77
2022/10/26 03:03:06;;;;;;;18.53;9.23;;;7.50;99.90;;;;;;4965589;28;20226;-77
2022/10/26 03:05:35;;;;;;;15.20;8.80;;;7.50;99.90;;;;;;5011665;22;20615;-92
2022/10/26 03:08:02;;;;;;;22.47;9.23;;;7.50;99.90;;;;;;5004928;28;20261;-93
2022/10/26 03:10:30;;;;;;;15.40;9.00;;;7.50;99.90;;;;;;4989981;28;20319;-95
2022/10/26 03:12:57;;;;;;;12.33;8.07;;;7.40;99.90;;;;;;4978314;28;20225;-94
2022/10/26 03:15:24;;;;;;;15.93;8.63;;;7.40;99.90;;;;;;4985894;28;20237;-93
2022/10/26 03:17:51;;;;;;;17.07;8.47;;;7.40;99.90;;;;;;4988966;28;20965;-93
2022/10/26 03:20:26;;;;;;;15.10;8.47;;;7.40;99.90;;;;;;4985552;28;20246;-93
2022/10/26 03:23:01;;;;;;;16.60;9.50;;;7.40;99.90;;;;;;4978459;28;20224;-93
2022/10/26 03:25:31;;;;;;;14.13;8.47;;;7.40;99.90;;;;;;4984580;28;20222;-93
2022/10/26 03:27:58;;;;;;;12.73;8.77;;;7.40;99.90;;;;;;4987139;28;20254;-94
2022/10/26 03:30:26;;;;;;;16.93;9.10;;;7.40;99.90;;;;;;4991610;28;20269;-93
2022/10/26 03:32:52;;;;;;;12.93;9.20;;;7.30;99.90;;;;;;4980910;28;20231;-93
2022/10/26 03:35:21;;;;;;;15.07;9.37;;;7.30;99.90;;;;;;4983344;28;20225;-92
2022/10/26 03:37:47;;;;;;;15.63;9.30;;;7.30;99.90;;;;;;4983789;28;20231;-92
2022/10/26 03:40:15;;;;;;;29.23;9.20;;;7.30;99.90;;;;;;4995670;28;20227;-91
2022/10/26 03:42:42;;;;;;;14.40;8.40;;;7.20;99.90;;;;;;4984564;28;20241;-91
2022/10/26 03:45:10;;;;;;;20.63;9.57;;;7.20;99.90;;;;;;4982351;28;20227;-91
2022/10/26 03:47:43;;;;;;;19.37;10.27;;;7.20;99.90;;;;;;4974620;28;20233;-92
2022/10/26 03:50:11;;;;;;;25.03;10.47;;;7.20;99.90;;;;;;4982316;28;20934;-91
2022/10/26 03:52:39;;;;;;;14.67;9.67;;;7.10;99.90;;;;;;4986076;28;20235;-92
2022/10/26 03:55:10;;;;;;;13.93;8.07;;;7.10;99.90;;;;;;4988244;28;20660;-93
2022/10/26 03:57:41;;;;;;;12.63;9.40;;;7.00;99.90;;;;;;4984911;28;20223;-92
2022/10/26 04:00:09;;;;;;;14.43;8.10;;;7.00;99.90;;;;;;4968707;28;20428;-93
2022/10/26 04:02:38;;;;;;;16.77;10.43;;;7.00;99.90;;;;;;4979139;28;20239;-91
2022/10/26 04:05:06;;;;;;;14.23;9.13;;;6.90;99.90;;;;;;4979299;28;20224;-93
2022/10/26 04:07:33;;;;;;;16.80;9.60;;;6.80;99.90;;;;;;4978548;28;20542;-91
2022/10/26 04:10:01;;;;;;;17.40;9.97;;;6.80;99.90;;;;;;5001961;28;20314;-92
2022/10/26 04:12:28;;;;;;;13.53;9.23;;;6.90;99.90;;;;;;4985370;28;20252;-92
2022/10/26 04:14:56;;;;;;;16.63;9.10;;;6.80;99.90;;;;;;4975498;28;20253;-91
2022/10/26 04:17:23;;;;;;;29.33;9.73;;;6.80;99.90;;;;;;4974230;28;20234;-92
2022/10/26 04:19:50;;;;;;;17.53;10.00;;;6.70;99.90;;;;;;4984434;28;20264;-92
2022/10/26 04:22:17;;;;;;;18.60;10.47;;;6.70;99.90;;;;;;4984406;28;20304;-90
2022/10/26 04:24:46;;;;;;;14.97;9.03;;;6.70;99.90;;;;;;4982011;28;20290;-89
2022/10/26 04:27:14;;;;;;;17.37;9.87;;;6.70;99.90;;;;;;4979037;28;20226;-91
2022/10/26 04:29:41;;;;;;;16.10;10.33;;;6.70;99.90;;;;;;4977265;28;20241;-89
2022/10/26 04:32:07;;;;;;;16.57;9.53;;;6.70;99.90;;;;;;4990428;28;20393;-89
2022/10/26 04:34:34;;;;;;;41.53;10.07;;;6.70;99.90;;;;;;4978573;28;20291;-94
2022/10/26 04:37:01;;;;;;;137.93;15.10;;;6.70;99.90;;;;;;4980561;28;20235;-92
2022/10/26 04:39:28;;;;;;;19.17;9.83;;;6.60;99.90;;;;;;4981662;28;20240;-93
2022/10/26 04:41:55;;;;;;;36.20;10.23;;;6.60;99.90;;;;;;4983535;28;20985;-91
2022/10/26 04:44:23;;;;;;;16.47;8.17;;;6.50;99.90;;;;;;4978833;28;20294;-92
2022/10/26 04:46:50;;;;;;;16.97;9.63;;;6.50;99.90;;;;;;4989336;28;20249;-92
2022/10/26 04:49:17;;;;;;;56.97;12.03;;;6.40;99.90;;;;;;4982720;28;20233;-92
2022/10/26 04:51:43;;;;;;;41.83;11.83;;;6.40;99.90;;;;;;4978406;28;20271;-93
2022/10/26 04:54:10;;;;;;;40.53;10.90;;;6.40;99.90;;;;;;4986848;28;20222;-92
2022/10/26 04:56:37;;;;;;;29.13;11.00;;;6.30;99.90;;;;;;4987173;28;20703;-92
2022/10/26 04:59:04;;;;;;;78.93;13.87;;;6.40;99.90;;;;;;4977431;28;20335;-91
2022/10/26 05:01:33;;;;;;;16.53;10.63;;;6.30;99.90;;;;;;4981034;28;20289;-92
2022/10/26 05:03:59;;;;;;;29.17;10.33;;;6.30;99.90;;;;;;4983396;28;20232;-92
2022/10/26 05:06:26;;;;;;;19.97;11.50;;;6.20;99.90;;;;;;4974215;28;20225;-92
2022/10/26 05:08:53;;;;;;;17.10;11.10;;;6.20;99.90;;;;;;4980583;28;20244;-91
2022/10/26 05:11:20;;;;;;;18.27;11.23;;;6.20;99.90;;;;;;4978534;28;20315;-92
2022/10/26 05:13:48;;;;;;;24.63;12.63;;;6.20;99.90;;;;;;4992433;28;20267;-94
2022/10/26 05:16:33;;;;;;;376.27;33.20;;;6.20;99.90;;;;;;4975520;28;20230;-94
2022/10/26 05:19:01;;;;;;;28.80;13.03;;;6.20;99.90;;;;;;4981022;28;20259;-92
2022/10/26 05:21:28;;;;;;;36.83;14.93;;;6.20;99.90;;;;;;4993154;28;20938;-92
2022/10/26 05:23:54;;;;;;;28.80;12.73;;;6.20;99.90;;;;;;4969160;28;20227;-93
2022/10/26 05:26:22;;;;;;;32.83;15.00;;;6.20;99.90;;;;;;4985500;28;20229;-93
2022/10/26 05:28:49;;;;;;;25.27;14.23;;;6.20;99.90;;;;;;4988449;28;20248;-91
2022/10/26 05:31:16;;;;;;;22.10;13.77;;;6.30;99.90;;;;;;4988878;28;20762;-92
2022/10/26 05:33:42;;;;;;;37.27;14.17;;;6.30;99.90;;;;;;4983644;28;20318;-93
2022/10/26 05:36:10;;;;;;;22.47;12.23;;;6.30;99.90;;;;;;4992766;28;20299;-93
2022/10/26 05:38:37;;;;;;;30.60;13.80;;;6.30;99.90;;;;;;4985423;28;20247;-92
2022/10/26 05:41:04;;;;;;;633.60;48.77;;;6.50;99.90;;;;;;4980338;28;20699;-93
2022/10/26 05:43:31;;;;;;;78.87;15.93;;;6.40;99.90;;;;;;4993818;28;20223;-91
2022/10/26 05:45:58;;;;;;;83.13;17.23;;;6.40;99.90;;;;;;4983954;28;20306;-92
2022/10/26 05:48:26;;;;;;;26.43;14.87;;;6.40;99.90;;;;;;4987035;28;20243;-93
2022/10/26 05:50:53;;;;;;;92.63;16.63;;;6.40;99.90;;;;;;4990090;28;20249;-94
2022/10/26 05:53:21;;;;;;;24.40;13.87;;;6.40;99.90;;;;;;4984141;28;20252;-92
2022/10/26 05:55:48;;;;;;;33.13;14.27;;;6.40;99.90;;;;;;4984061;28;20288;-93
2022/10/26 05:58:16;;;;;;;25.17;14.27;;;6.40;99.90;;;;;;4979904;28;20298;-93
2022/10/26 06:00:56;;;;;;;24.27;14.20;;;6.40;99.90;;;;;;4983666;28;20296;-94
2022/10/26 06:03:38;;;;;;;22.90;13.27;;;6.30;99.90;;;;;;4959622;28;20266;-96
2022/10/26 06:06:08;;;;;;;17.57;10.37;;;6.40;99.90;;;;;;5003315;28;20614;-96
2022/10/26 06:08:41;;;;;;;508.80;46.23;;;6.30;99.90;;;;;;5007583;28;20384;-95
2022/10/26 06:11:09;;;;;;;21.17;12.77;;;6.30;99.90;;;;;;5016929;28;20226;-96
2022/10/26 06:13:37;;;;;;;26.73;10.47;;;6.30;99.90;;;;;;5003782;28;20598;-96
2022/10/26 06:16:24;;;;;;;24.17;13.10;;;6.20;99.90;;;;;;5009735;28;20212;-95
2022/10/26 06:19:00;;;;;;;21.93;12.23;;;6.20;99.90;;;;;;5018953;28;20364;-96
2022/10/26 06:21:39;;;;;;;162.53;23.93;;;6.20;99.90;;;;;;5032243;22;21548;-79
2022/10/26 06:24:12;;;;;;;24.17;13.20;;;6.10;99.90;;;;;;4998549;28;20563;-79
2022/10/26 06:26:45;;;;;;;26.53;10.27;;;6.10;99.90;;;;;;5008408;28;20240;-80
2022/10/26 06:29:24;;;;;;;19.63;10.90;;;6.10;99.90;;;;;;5007836;28;20232;-80
2022/10/26 06:31:51;;;;;;;69.43;15.77;;;6.10;99.90;;;;;;5010379;28;20692;-79
2022/10/26 06:34:25;;;;;;;29.33;13.73;;;6.00;99.90;;;;;;5000987;28;20248;-79
2022/10/26 06:36:53;;;;;;;22.47;12.87;;;6.10;99.90;;;;;;5008314;28;20235;-80
2022/10/26 06:39:21;;;;;;;23.37;13.37;;;6.10;99.90;;;;;;5007195;28;20339;-79
2022/10/26 06:41:50;;;;;;;28.17;13.77;;;6.10;99.90;;;;;;4997873;28;20232;-80
2022/10/26 06:44:22;;;;;;;22.80;13.37;;;6.10;99.90;;;;;;4995301;28;20566;-79
2022/10/26 06:46:56;;;;;;;70.27;14.57;;;6.10;99.90;;;;;;4997625;28;20692;-79
2022/10/26 06:49:29;;;;;;;25.37;14.37;;;6.10;99.90;;;;;;4996140;28;20223;-80
2022/10/26 06:51:59;;;;;;;27.33;14.90;;;6.20;99.90;;;;;;5008421;28;20236;-79
2022/10/26 06:54:35;;;;;;;30.03;14.73;;;6.20;99.90;;;;;;5006920;28;20314;-80
2022/10/26 06:57:03;;;;;;;27.30;15.20;;;6.20;99.90;;;;;;4989547;28;20224;-80
2022/10/26 06:59:40;;;;;;;23.53;14.23;;;6.30;99.90;;;;;;4987511;28;20229;-80
2022/10/26 07:02:09;;;;;;;25.70;14.33;;;6.50;99.90;;;;;;4994772;28;20317;-80
2022/10/26 07:04:35;;;;;;;22.20;14.47;;;6.50;99.90;;;;;;5008373;28;20241;-79
2022/10/26 07:07:02;;;;;;;30.77;15.10;;;6.60;99.90;;;;;;5009323;28;20229;-79
2022/10/26 07:09:30;;;;;;;26.97;14.87;;;6.70;99.90;;;;;;5009011;28;20226;-79
2022/10/26 07:11:57;;;;;;;26.63;15.17;;;6.80;99.90;;;;;;5010093;28;20884;-79
2022/10/26 07:14:23;;;;;;;25.10;14.40;;;6.90;99.90;;;;;;5007996;28;20254;-79
2022/10/26 07:16:50;;;;;;;25.13;14.80;;;7.00;99.90;;;;;;5008055;28;20694;-79
2022/10/26 07:19:17;;;;;;;21.90;14.60;;;7.00;99.90;;;;;;5006429;28;20243;-79
2022/10/26 07:21:43;;;;;;;25.83;15.33;;;7.10;99.90;;;;;;4999813;28;20320;-82
2022/10/26 07:24:10;;;;;;;24.63;15.23;;;7.20;99.90;;;;;;4992508;28;20222;-81
2022/10/26 07:26:38;;;;;;;25.93;14.17;;;7.20;99.90;;;;;;5007064;28;20231;-82
2022/10/26 07:29:05;;;;;;;22.60;14.80;;;7.30;99.90;;;;;;5001255;28;20219;-82
2022/10/26 07:31:32;;;;;;;23.47;13.67;;;7.40;99.90;;;;;;5012051;28;20218;-82
2022/10/26 07:33:58;;;;;;;23.20;15.10;;;7.50;99.90;;;;;;5004900;28;20658;-83
2022/10/26 07:36:25;;;;;;;23.93;14.43;;;7.50;99.90;;;;;;5003596;28;20517;-83
2022/10/26 07:38:52;;;;;;;24.70;14.67;;;7.60;99.90;;;;;;5003375;28;20235;-82
2022/10/26 07:41:20;;;;;;;22.93;14.73;;;7.70;99.90;;;;;;5004550;28;20219;-83
2022/10/26 07:43:49;;;;;;;22.23;14.07;;;7.80;99.90;;;;;;5000031;28;20604;-82
2022/10/26 07:46:16;;;;;;;21.47;14.27;;;7.90;99.90;;;;;;5006804;28;20657;-83
2022/10/26 07:48:43;;;;;;;25.80;14.00;;;7.90;99.90;;;;;;5018100;28;20253;-82
2022/10/26 07:51:09;;;;;;;23.40;13.13;;;8.00;99.90;;;;;;5004555;28;20259;-83
2022/10/26 07:53:36;;;;;;;22.23;13.30;;;8.10;99.90;;;;;;5004309;28;20234;-82
2022/10/26 07:56:03;;;;;;;19.97;14.00;;;8.20;99.90;;;;;;5006832;28;20218;-82
2022/10/26 07:58:31;;;;;;;23.83;14.70;;;8.20;99.90;;;;;;5006298;28;20225;-83
2022/10/26 08:01:06;;;;;;;19.50;13.73;;;8.30;99.90;;;;;;5009617;28;20246;-80
2022/10/26 08:03:32;;;;;;;22.50;13.43;;;8.40;99.90;;;;;;4994150;28;20293;-80
2022/10/26 08:05:59;;;;;;;22.83;13.37;;;8.50;99.90;;;;;;4996687;28;20699;-80
2022/10/26 08:08:26;;;;;;;19.50;14.13;;;8.60;99.90;;;;;;5005119;28;20282;-80
2022/10/26 08:10:52;;;;;;;25.60;14.53;;;8.60;99.90;;;;;;5002359;28;20239;-80
2022/10/26 08:13:19;;;;;;;19.67;13.23;;;8.80;99.90;;;;;;5003037;28;20223;-79
2022/10/26 08:15:46;;;;;;;21.73;13.93;;;8.90;99.90;;;;;;4996017;28;20230;-79
2022/10/26 08:18:14;;;;;;;21.97;12.77;;;9.00;99.90;;;;;;5002290;28;20234;-79
2022/10/26 08:20:41;;;;;;;18.53;13.23;;;9.20;99.90;;;;;;5012103;28;20767;-79
2022/10/26 08:23:07;;;;;;;18.60;12.33;;;9.40;99.90;;;;;;5003543;28;21122;-80
2022/10/26 08:25:35;;;;;;;20.30;12.80;;;9.70;99.90;;;;;;5000908;28;20244;-78
2022/10/26 08:28:02;;;;;;;17.00;11.83;;;10.10;99.90;;;;;;4992836;28;20221;-79
2022/10/26 08:30:30;;;;;;;14.97;11.33;;;10.50;99.90;;;;;;4995210;28;20232;-78
2022/10/26 08:33:00;;;;;;;14.97;11.00;;;11.10;99.90;;;;;;4987141;28;20308;-79
2022/10/26 08:35:28;;;;;;;13.27;11.13;;;11.70;99.90;;;;;;4996047;28;20240;-79
2022/10/26 08:37:55;;;;;;;12.63;9.23;;;12.40;99.90;;;;;;5000262;28;20220;-79
2022/10/26 08:40:25;;;;;;;14.13;8.90;;;13.10;99.90;;;;;;4999955;28;20225;-79
2022/10/26 08:42:57;;;;;;;11.83;8.07;;;13.70;99.90;;;;;;4995337;28;20235;-79
2022/10/26 08:45:27;;;;;;;13.50;8.80;;;14.30;99.90;;;;;;5002248;28;20231;-79
2022/10/26 08:47:58;;;;;;;9.57;7.80;;;14.90;99.90;;;;;;5000610;28;20227;-79
2022/10/26 08:50:31;;;;;;;12.10;7.87;;;15.40;99.90;;;;;;4996481;28;20570;-79
2022/10/26 08:53:03;;;;;;;11.00;7.47;;;15.80;99.90;;;;;;4989768;28;20225;-79
2022/10/26 08:55:39;;;;;;;12.60;9.07;;;16.20;99.90;;;;;;4993088;28;20666;-79
2022/10/26 08:58:13;;;;;;;11.40;7.27;;;16.50;99.90;;;;;;4995015;28;20325;-79
2022/10/26 09:00:40;;;;;;;11.97;7.77;;;16.90;99.90;;;;;;4994264;28;20244;-79
2022/10/26 09:03:13;;;;;;;10.47;8.63;;;17.30;99.90;;;;;;4994305;28;20777;-79
2022/10/26 09:05:49;;;;;;;11.80;7.40;;;17.60;99.90;;;;;;5001023;28;20286;-79
2022/10/26 09:08:26;;;;;;;9.57;6.40;;;18.00;99.90;;;;;;4998781;28;20223;-79
2022/10/26 09:11:04;;;;;;;8.73;5.87;;;18.30;99.90;;;;;;4999217;28;20715;-79
2022/10/26 09:13:40;;;;;;;8.90;6.03;;;18.60;99.90;;;;;;5002009;28;20256;-79
2022/10/26 09:16:19;;;;;;;7.60;5.60;;;18.90;99.90;;;;;;5016014;28;20778;-79
2022/10/26 09:18:54;;;;;;;10.23;5.80;;;18.90;99.90;;;;;;5000763;22;20234;-80
2022/10/26 09:21:37;;;;;;;8.60;5.43;;;19.00;99.90;;;;;;4985781;28;20761;-79
2022/10/26 09:24:13;;;;;;;9.13;4.40;;;19.10;99.90;;;;;;4978504;28;20274;-82
2022/10/26 09:26:53;;;;;;;8.07;3.90;;;19.10;99.90;;;;;;4998926;28;20804;-79
2022/10/26 09:29:23;;;;;;;6.17;3.93;;;19.10;99.90;;;;;;4970537;28;20263;-83
2022/10/26 09:31:50;;;;;;;7.17;3.90;;;19.20;99.90;;;;;;4976008;28;20233;-80
2022/10/26 09:34:28;;;;;;;6.23;3.77;;;19.10;99.90;;;;;;4976150;28;20329;-80
2022/10/26 09:36:57;;;;;;;5.60;3.90;;;19.20;99.90;;;;;;4978362;28;20289;-81
2022/10/26 09:39:36;;;;;;;4.50;3.33;;;19.10;99.90;;;;;;4979311;28;20229;-81
2022/10/26 09:42:12;;;;;;;5.07;3.20;;;19.00;99.90;;;;;;4981359;28;20611;-81
2022/10/26 09:44:43;;;;;;;4.33;2.80;;;18.90;99.90;;;;;;4974696;28;20328;-81
2022/10/26 09:47:22;;;;;;;7.43;3.17;;;18.90;99.90;;;;;;4992694;28;20218;-84
2022/10/26 09:49:56;;;;;;;6.50;3.10;;;18.70;99.90;;;;;;4979424;28;20776;-81
2022/10/26 09:52:24;;;;;;;5.63;3.03;;;18.70;99.90;;;;;;4987230;28;20240;-81
2022/10/26 09:54:50;;;;;;;4.27;2.83;;;18.80;99.90;;;;;;4993849;28;20694;-80
2022/10/26 09:57:20;;;;;;;7.47;2.50;;;18.90;99.90;;;;;;4990498;28;20326;-80
2022/10/26 09:59:51;;;;;;;4.90;2.47;;;19.00;99.90;;;;;;4976853;28;20228;-80
2022/10/26 10:02:38;;;;;;;5.00;2.60;;;19.00;99.90;;;;;;4988017;28;20227;-84
2022/10/26 10:05:27;;;;;;;4.83;2.83;;;18.90;99.90;;;;;;4981526;28;20296;-79
2022/10/26 10:08:10;;;;;;;5.20;2.43;;;19.00;99.90;;;;;;4982837;28;20356;-83
2022/10/26 10:10:37;;;;;;;7.17;2.30;;;19.00;99.50;;;;;;4980026;28;20828;-82
2022/10/26 10:13:15;;;;;;;4.97;2.43;;;18.90;99.80;;;;;;4978863;28;20222;-81
2022/10/26 10:15:53;;;;;;;4.50;2.33;;;19.00;99.90;;;;;;4974349;28;21157;-81
2022/10/26 10:18:21;;;;;;;4.63;2.00;;;19.10;98.90;;;;;;4977357;28;20696;-83
2022/10/26 10:20:54;;;;;;;5.07;2.10;;;19.10;99.90;;;;;;4984034;28;20322;-82
2022/10/26 10:23:28;;;;;;;5.33;2.20;;;19.20;99.90;;;;;;4981707;28;20604;-81
2022/10/26 10:26:00;;;;;;;6.00;3.03;;;19.20;99.00;;;;;;4980006;28;20226;-84
2022/10/26 10:28:28;;;;;;;2.83;2.10;;;19.20;99.90;;;;;;4980643;28;20234;-84
2022/10/26 10:30:59;;;;;;;7.97;2.70;;;19.20;98.90;;;;;;4992064;28;20257;-80
2022/10/26 10:33:35;;;;;;;5.07;2.33;;;19.20;99.10;;;;;;4975861;28;20226;-80
2022/10/26 10:36:04;;;;;;;3.53;2.00;;;19.20;98.60;;;;;;4980115;28;20228;-81
2022/10/26 10:38:38;;;;;;;6.40;2.30;;;19.20;99.70;;;;;;4983979;28;20262;-82
2022/10/26 10:41:05;;;;;;;4.93;2.30;;;19.20;99.10;;;;;;4986367;28;20225;-81
2022/10/26 10:43:32;;;;;;;5.57;2.07;;;19.30;99.90;;;;;;4976408;28;20222;-81
2022/10/26 10:46:00;;;;;;;4.70;2.37;;;19.30;99.50;;;;;;4980431;28;20219;-82
2022/10/26 10:48:30;;;;;;;7.47;2.50;;;19.40;99.60;;;;;;4992880;28;20905;-81
2022/10/26 10:51:00;;;;;;;5.55;2.53;;;19.50;99.20;;;;;;4978009;28;20254;-80
2022/10/26 10:53:30;;;;;;;8.20;3.08;;;19.50;98.60;;;;;;4972361;28;20222;-80
2022/10/26 10:56:14;;;;;;;4.70;2.25;;;19.60;99.40;;;;;;4984875;28;20717;-81
2022/10/26 10:58:50;;;;;;;5.65;2.63;;;19.50;98.90;;;;;;4982501;28;20245;-82
2022/10/26 11:01:22;;;;;;;8.13;3.78;;;19.50;98.50;;;;;;4974487;28;20441;-80
2022/10/26 11:04:08;;;;;;;5.57;2.97;;;19.60;99.10;;;;;;4979705;28;20229;-81
2022/10/26 11:06:37;;;;;;;7.00;2.85;;;19.60;99.00;;;;;;4984892;28;20260;-81
2022/10/26 11:09:07;;;;;;;5.28;2.50;;;19.60;98.60;;;;;;4978389;28;20222;-80
2022/10/26 11:11:39;;;;;;;4.07;2.50;;;19.70;99.60;;;;;;4980093;28;20240;-84
2022/10/26 11:14:14;;;;;;;4.18;2.70;;;19.70;98.90;;;;;;4980842;28;20222;-81
2022/10/26 11:16:46;;;;;;;6.07;2.60;;;19.70;98.30;;;;;;4983342;28;20544;-80
2022/10/26 11:19:20;;;;;;;5.03;2.67;;;19.70;98.90;;;;;;4990986;28;20227;-80
2022/10/26 11:21:50;;;;;;;4.90;2.22;;;19.70;99.10;;;;;;4978670;28;20238;-81
2022/10/26 11:24:25;;;;;;;4.53;2.73;;;19.70;98.20;;;;;;4973507;28;20957;-82
2022/10/26 11:27:01;;;;;;;4.17;2.50;;;19.60;98.10;;;;;;4977739;28;20721;-80
2022/10/26 11:29:39;;;;;;;4.07;2.60;;;19.50;97.70;;;;;;4991629;28;20650;-80
2022/10/26 11:32:13;;;;;;;4.80;3.20;;;19.30;97.60;;;;;;4964948;28;20218;-79
2022/10/26 11:34:47;;;;;;;5.50;3.47;;;19.20;98.20;;;;;;4986819;28;20264;-82
2022/10/26 11:37:24;;;;;;;5.93;4.67;;;19.10;98.80;;;;;;4979828;28;20740;-80
2022/10/26 11:40:02;;;;;;;5.23;3.27;;;19.00;98.70;;;;;;4976923;28;20226;-81
2022/10/26 11:42:36;;;;;;;5.83;2.80;;;18.90;99.10;;;;;;4987914;28;20246;-80
2022/10/26 11:45:11;;;;;;;5.40;2.83;;;18.90;99.10;;;;;;4979822;28;20384;-81
2022/10/26 11:47:44;;;;;;;5.90;3.07;;;18.80;99.10;;;;;;4992591;28;20261;-80
2022/10/26 11:50:17;;;;;;;5.20;3.40;;;18.80;99.20;;;;;;4982572;28;20642;-80
2022/10/26 11:52:47;;;;;;;5.43;3.90;;;18.70;99.10;;;;;;4979578;28;20233;-82
2022/10/26 11:55:14;;;;;;;4.67;3.20;;;18.60;99.50;;;;;;4995011;28;20229;-80
2022/10/26 11:57:45;;;;;;;4.47;2.70;;;18.60;99.60;;;;;;4977504;28;20280;-80
2022/10/26 12:00:16;;;;;;;6.43;3.23;;;18.60;99.80;;;;;;4995006;28;20374;-80
2022/10/26 12:02:48;;;;;;;6.03;3.30;;;18.60;99.50;;;;;;4977702;28;20692;-81
2022/10/26 12:05:22;;;;;;;5.40;3.40;;;18.60;99.80;;;;;;4980591;28;20223;-80
2022/10/26 12:07:52;;;;;;;6.60;2.90;;;18.60;99.70;;;;;;4985402;28;20237;-81
2022/10/26 12:10:27;;;;;;;6.27;3.17;;;18.50;99.80;;;;;;4994434;28;20287;-82
2022/10/26 12:13:01;;;;;;;6.90;3.20;;;18.50;99.80;;;;;;4977422;28;20221;-83
2022/10/26 12:15:34;;;;;;;4.23;3.03;;;18.40;99.50;;;;;;4981347;28;20308;-81
2022/10/26 12:18:10;;;;;;;5.63;3.20;;;18.40;99.70;;;;;;4995922;28;20255;-81
2022/10/26 12:21:01;;;;;;;5.83;3.57;;;18.50;99.90;;;;;;4979318;28;20236;-82
2022/10/26 12:23:29;;;;;;;4.97;2.80;;;18.50;99.50;;;;;;4991007;28;21007;-81
2022/10/26 12:26:48;;;;;;;5.87;3.43;;;18.50;99.90;;;;;;4981528;28;20232;-82
2022/10/26 12:29:39;;;;;;;6.67;3.07;;;18.50;99.90;;;;;;4983542;28;20221;-80
2022/10/26 12:32:37;;;;;;;5.83;2.67;;;18.60;99.70;;;;;;4983471;28;20236;-80
2022/10/26 12:35:34;;;;;;;4.57;3.00;;;18.50;99.40;;;;;;4953617;28;20245;-80
2022/10/26 12:38:05;;;;;;;5.43;3.20;;;18.50;99.80;;;;;;4980308;28;20237;-81
2022/10/26 12:40:42;;;;;;;8.07;5.90;;;18.50;99.80;;;;;;4980187;28;20294;-80
2022/10/26 12:43:41;;;;;;;5.17;3.00;;;18.50;99.80;;;;;;4977991;28;20246;-80
2022/10/26 12:46:44;;;;;;;5.07;2.70;;;18.40;99.60;;;;;;4980373;28;20220;-80
2022/10/26 12:49:59;;;;;;;4.77;2.80;;;18.30;99.90;;;;;;4963297;28;20249;-81
2022/10/26 12:52:53;;;;;;;6.27;3.20;;;18.30;99.90;;;;;;4977704;28;20256;-81
2022/10/26 12:55:36;;;;;;;5.87;3.00;;;18.30;99.90;;;;;;4994610;28;20324;-81
2022/10/26 12:58:27;;;;;;;4.60;2.40;;;18.30;99.90;;;;;;4995995;28;20237;-80
2022/10/26 13:01:26;;;;;;;6.90;3.20;;;18.30;99.90;;;;;;4975145;28;20241;-82
2022/10/26 13:04:08;;;;;;;5.83;3.00;;;18.30;99.90;;;;;;4976490;28;20222;-83
2022/10/26 13:06:46;;;;;;;5.20;3.40;;;18.30;99.90;;;;;;4982804;28;20234;-83
2022/10/26 13:09:17;;;;;;;7.50;2.97;;;18.30;99.90;;;;;;4976612;28;20229;-80